KMIC/MIC METAR and TAF weather

Enter ICAO airport designator
Station Type Date Time Source
KMIC METAR 2021/08/04 19:53 UTC NOAA

KMIC 041953Z 21010KT 10SM CLR 28/11 A3004 RMK AO2 SLP168 T02830111


Station Type Date Time Source
KMIC Decoded METAR 2021/08/04 19:53 UTC NOAA

CRYSTAL AIRPORT, MN, United States (KMIC) 45-04N 093-21W 265M
Aug 04, 2021 - 03:53 PM EDT / 2021.08.04 1953 UTC
Wind: from the SSW (210 degrees) at 12 MPH (10 KT):0
Visibility: 10 mile(s):0
Sky conditions: clear
Temperature: 82.9 F (28.3 C)
Dew Point: 52.0 F (11.1 C)
Relative Humidity: 34%
Pressure (altimeter): 30.04 in. Hg (1017 hPa)
ob: KMIC 041953Z 21010KT 10SM CLR 28/11 A3004 RMK AO2 SLP168 T02830111
cycle: 20

Station Type Date Time Source
KMIC TAF UTC NOAA

Error!

Example: see airport list